KORF/ORF METAR and TAF weather

Enter ICAO airport designator
Station Type Date Time Source
KORF METAR 2022/06/27 07:51 UTC NOAA

KORF 270751Z 19013KT 10SM CLR 22/19 A3005 RMK AO2 SLP176 T02220189


Station Type Date Time Source
KORF Decoded METAR 2022/06/27 07:51 UTC NOAA

NORFOLK INTERNATIONAL AIRPORT , VA, United States (KORF) 36-54N 076-12W 14M
Jun 27, 2022 - 03:51 AM EDT / 2022.06.27 0751 UTC
Wind: from the S (190 degrees) at 15 MPH (13 KT):0
Visibility: 10 mile(s):0
Sky conditions: clear
Temperature: 72.0 F (22.2 C)
Dew Point: 66.0 F (18.9 C)
Relative Humidity: 81%
Pressure (altimeter): 30.05 in. Hg (1017 hPa)
ob: KORF 270751Z 19013KT 10SM CLR 22/19 A3005 RMK AO2 SLP176 T02220189
cycle: 8

Station Type Date Time Source
KORF TAF 2022/06/27 06:30 UTC NOAA

TAF KORF 270528Z 2706/2806 20012KT P6SM SKC
FM271200 22012KT P6SM SCT060
FM271600 22012G18KT P6SM BKN060
FM272000 19008KT P6SM VCSH BKN040
FM272200 22005KT P6SM -SHRA SCT015 OVC040

Example: see airport list